sensor_id;sensor_type;location;lat;lon;timestamp;pressure;altitude;pressure_sealevel;temperature;humidity
35918;BME280;22011;59.912;30.300;2023-03-21T00:00:53;100327.94;;;6.80;79.63
35918;BME280;22011;59.912;30.300;2023-03-21T00:03:21;100332.19;;;6.73;78.86
35918;BME280;22011;59.912;30.300;2023-03-21T00:05:50;100328.41;;;6.75;79.52
35918;BME280;22011;59.912;30.300;2023-03-21T00:08:19;100324.69;;;6.68;79.59
35918;BME280;22011;59.912;30.300;2023-03-21T00:10:47;100325.66;;;6.67;79.84
35918;BME280;22011;59.912;30.300;2023-03-21T00:13:21;100321.97;;;6.60;79.51
35918;BME280;22011;59.912;30.300;2023-03-21T00:15:48;100316.66;;;6.60;79.87
35918;BME280;22011;59.912;30.300;2023-03-21T00:18:16;100316.66;;;6.60;80.01
35918;BME280;22011;59.912;30.300;2023-03-21T00:20:56;100309.47;;;6.70;80.37
35918;BME280;22011;59.912;30.300;2023-03-21T00:23:24;100311.97;;;6.54;80.21
35918;BME280;22011;59.912;30.300;2023-03-21T00:25:51;100313.56;;;6.47;79.85
35918;BME280;22011;59.912;30.300;2023-03-21T00:28:20;100306.28;;;6.49;80.13
35918;BME280;22011;59.912;30.300;2023-03-21T00:30:48;100303.94;;;6.46;80.07
35918;BME280;22011;59.912;30.300;2023-03-21T00:33:15;100300.63;;;6.44;79.87
35918;BME280;22011;59.912;30.300;2023-03-21T00:35:49;100294.72;;;6.50;80.41
35918;BME280;22011;59.912;30.300;2023-03-21T00:38:20;100302.22;;;6.54;80.19
35918;BME280;22011;59.912;30.300;2023-03-21T00:40:48;100295.03;;;6.47;79.83
35918;BME280;22011;59.912;30.300;2023-03-21T00:43:16;100296.69;;;6.48;79.29
35918;BME280;22011;59.912;30.300;2023-03-21T00:45:45;100289.97;;;6.53;79.87
35918;BME280;22011;59.912;30.300;2023-03-21T00:48:12;100290.81;;;6.54;79.53
35918;BME280;22011;59.912;30.300;2023-03-21T00:50:40;100294.13;;;6.56;79.62
35918;BME280;22011;59.912;30.300;2023-03-21T00:53:10;100289.50;;;6.58;80.06
35918;BME280;22011;59.912;30.300;2023-03-21T00:55:39;100293.00;;;6.59;80.24
35918;BME280;22011;59.912;30.300;2023-03-21T00:58:08;100289.50;;;6.58;79.96
35918;BME280;22011;59.912;30.300;2023-03-21T01:00:36;100289.50;;;6.58;80.47
35918;BME280;22011;59.912;30.300;2023-03-21T01:03:04;100283.53;;;6.56;80.32
35918;BME280;22011;59.912;30.300;2023-03-21T01:05:34;100291.09;;;6.51;80.08
35918;BME280;22011;59.912;30.300;2023-03-21T01:08:21;100290.41;;;6.49;80.01
35918;BME280;22011;59.912;30.300;2023-03-21T01:10:51;100283.53;;;6.56;80.58
35918;BME280;22011;59.912;30.300;2023-03-21T01:13:21;100286.03;;;6.57;80.93
35918;BME280;22011;59.912;30.300;2023-03-21T01:15:50;100283.69;;;6.54;80.90
35918;BME280;22011;59.912;30.300;2023-03-21T01:18:21;100285.19;;;6.57;80.97
35918;BME280;22011;59.912;30.300;2023-03-21T01:20:50;100288.69;;;6.57;81.10
35918;BME280;22011;59.912;30.300;2023-03-21T01:23:17;100282.41;;;6.59;81.03
35918;BME280;22011;59.912;30.300;2023-03-21T01:25:47;100289.06;;;6.63;81.54
35918;BME280;22011;59.912;30.300;2023-03-21T01:28:16;100299.50;;;6.64;81.01
35918;BME280;22011;59.912;30.300;2023-03-21T01:30:45;100288.53;;;6.59;81.01
35918;BME280;22011;59.912;30.300;2023-03-21T01:33:13;100294.34;;;6.63;81.63
35918;BME280;22011;59.912;30.300;2023-03-21T01:35:41;100294.34;;;6.63;81.27
35918;BME280;22011;59.912;30.300;2023-03-21T01:38:09;100300.47;;;6.63;80.89
35918;BME280;22011;59.912;30.300;2023-03-21T01:40:39;100300.19;;;6.66;80.83
35918;BME280;22011;59.912;30.300;2023-03-21T01:43:22;100301.69;;;6.69;80.71
35918;BME280;22011;59.912;30.300;2023-03-21T01:46:25;100308.28;;;6.82;81.54
35918;BME280;22011;59.912;30.300;2023-03-21T01:49:16;100306.84;;;6.70;80.69
35918;BME280;22011;59.912;30.300;2023-03-21T01:51:50;100307.38;;;6.74;80.93
35918;BME280;22011;59.912;30.300;2023-03-21T01:54:24;100318.19;;;6.80;79.91
35918;BME280;22011;59.912;30.300;2023-03-21T01:56:55;100322.25;;;6.57;75.75
35918;BME280;22011;59.912;30.300;2023-03-21T01:59:28;100326.09;;;6.45;75.23
35918;BME280;22011;59.912;30.300;2023-03-21T02:02:15;100326.38;;;6.24;74.45
35918;BME280;22011;59.912;30.300;2023-03-21T02:05:12;100325.94;;;6.01;73.63
35918;BME280;22011;59.912;30.300;2023-03-21T02:07:40;100335.06;;;5.89;75.10
35918;BME280;22011;59.912;30.300;2023-03-21T02:10:13;100339.94;;;5.74;74.84
35918;BME280;22011;59.912;30.300;2023-03-21T02:12:46;100338.63;;;5.51;73.39
35918;BME280;22011;59.912;30.300;2023-03-21T02:15:16;100334.75;;;5.45;73.42
35918;BME280;22011;59.912;30.300;2023-03-21T02:18:03;100349.66;;;5.27;73.55
35918;BME280;22011;59.912;30.300;2023-03-21T02:21:01;100350.94;;;5.13;74.70
35918;BME280;22011;59.912;30.300;2023-03-21T02:27:08;100348.88;;;4.88;74.52
35918;BME280;22011;59.912;30.300;2023-03-21T02:32:57;100348.97;;;4.67;74.81
35918;BME280;22011;59.912;30.300;2023-03-21T02:35:45;100347.44;;;4.65;75.51
35918;BME280;22011;59.912;30.300;2023-03-21T02:38:19;100349.13;;;4.75;75.83
35918;BME280;22011;59.912;30.300;2023-03-21T02:40:55;100346.19;;;4.49;74.85
35918;BME280;22011;59.912;30.300;2023-03-21T02:43:30;100343.69;;;4.48;74.31
35918;BME280;22011;59.912;30.300;2023-03-21T02:46:07;100356.16;;;4.46;75.06
35918;BME280;22011;59.912;30.300;2023-03-21T02:48:40;100352.97;;;4.42;73.93
35918;BME280;22011;59.912;30.300;2023-03-21T02:51:12;100344.78;;;4.45;73.54
35918;BME280;22011;59.912;30.300;2023-03-21T02:53:46;100349.50;;;4.42;74.55
35918;BME280;22011;59.912;30.300;2023-03-21T02:56:15;100347.94;;;4.30;74.31
35918;BME280;22011;59.912;30.300;2023-03-21T02:58:48;100345.44;;;4.28;73.60
35918;BME280;22011;59.912;30.300;2023-03-21T03:01:16;100356.25;;;4.25;73.57
35918;BME280;22011;59.912;30.300;2023-03-21T03:03:47;100355.56;;;4.23;73.90
35918;BME280;22011;59.912;30.300;2023-03-21T03:06:18;100361.22;;;4.18;74.22
35918;BME280;22011;59.912;30.300;2023-03-21T03:09:06;100351.53;;;4.28;74.37
35918;BME280;22011;59.912;30.300;2023-03-21T03:11:40;100351.13;;;4.14;74.34
35918;BME280;22011;59.912;30.300;2023-03-21T03:14:28;100351.38;;;4.20;74.43
35918;BME280;22011;59.912;30.300;2023-03-21T03:17:09;100344.72;;;4.16;74.75
35918;BME280;22011;59.912;30.300;2023-03-21T03:19:47;100353.75;;;4.14;75.71
35918;BME280;22011;59.912;30.300;2023-03-21T03:22:23;100355.13;;;4.08;74.50
35918;BME280;22011;59.912;30.300;2023-03-21T03:24:56;100363.28;;;4.05;75.13
35918;BME280;22011;59.912;30.300;2023-03-21T03:27:27;100357.31;;;4.03;75.14
35918;BME280;22011;59.912;30.300;2023-03-21T03:29:58;100365.88;;;3.96;74.75
35918;BME280;22011;59.912;30.300;2023-03-21T03:32:30;100363.13;;;3.97;75.21
35918;BME280;22011;59.912;30.300;2023-03-21T03:35:02;100370.06;;;3.98;76.08
35918;BME280;22011;59.912;30.300;2023-03-21T03:37:32;100363.91;;;4.28;75.84
35918;BME280;22011;59.912;30.300;2023-03-21T03:40:08;100363.59;;;4.12;74.25
35918;BME280;22011;59.912;30.300;2023-03-21T03:42:45;100366.19;;;4.02;72.85
35918;BME280;22011;59.912;30.300;2023-03-21T03:45:26;100368.13;;;4.00;73.45
35918;BME280;22011;59.912;30.300;2023-03-21T03:48:01;100371.03;;;3.97;73.52
35918;BME280;22011;59.912;30.300;2023-03-21T03:50:37;100375.88;;;3.92;74.26
35918;BME280;22011;59.912;30.300;2023-03-21T03:53:15;100372.09;;;3.85;75.01
35918;BME280;22011;59.912;30.300;2023-03-21T03:55:51;100388.28;;;3.80;74.19
35918;BME280;22011;59.912;30.300;2023-03-21T03:58:22;100389.38;;;3.78;74.42
35918;BME280;22011;59.912;30.300;2023-03-21T04:00:53;100386.50;;;3.81;75.12
35918;BME280;22011;59.912;30.300;2023-03-21T04:03:22;100386.03;;;3.76;75.22
35918;BME280;22011;59.912;30.300;2023-03-21T04:05:50;100390.03;;;3.70;75.43
35918;BME280;22011;59.912;30.300;2023-03-21T04:08:17;100394.34;;;3.71;75.73
35918;BME280;22011;59.912;30.300;2023-03-21T04:10:52;100400.88;;;3.77;75.91
35918;BME280;22011;59.912;30.300;2023-03-21T04:13:21;100400.63;;;3.80;75.55
35918;BME280;22011;59.912;30.300;2023-03-21T04:16:01;100404.75;;;3.73;75.26
35918;BME280;22011;59.912;30.300;2023-03-21T04:18:30;100403.34;;;3.69;76.19
35918;BME280;22011;59.912;30.300;2023-03-21T04:20:58;100415.53;;;3.70;75.21
35918;BME280;22011;59.912;30.300;2023-03-21T04:23:28;100415.53;;;3.70;76.00
35918;BME280;22011;59.912;30.300;2023-03-21T04:25:57;100423.44;;;3.70;76.07
35918;BME280;22011;59.912;30.300;2023-03-21T04:28:33;100430.78;;;3.66;76.28
35918;BME280;22011;59.912;30.300;2023-03-21T04:31:07;100421.59;;;3.60;76.12
35918;BME280;22011;59.912;30.300;2023-03-21T04:33:44;100434.06;;;3.58;76.01
35918;BME280;22011;59.912;30.300;2023-03-21T04:36:13;100428.78;;;3.58;76.22
35918;BME280;22011;59.912;30.300;2023-03-21T04:38:52;100434.19;;;3.57;76.35
35918;BME280;22011;59.912;30.300;2023-03-21T04:41:21;100440.28;;;3.57;76.47
35918;BME280;22011;59.912;30.300;2023-03-21T04:43:49;100437.19;;;3.52;76.35
35918;BME280;22011;59.912;30.300;2023-03-21T04:46:18;100428.47;;;3.52;76.57
35918;BME280;22011;59.912;30.300;2023-03-21T04:48:50;100432.63;;;3.54;77.41
35918;BME280;22011;59.912;30.300;2023-03-21T04:51:18;100441.25;;;3.56;76.16
35918;BME280;22011;59.912;30.300;2023-03-21T04:53:46;100442.41;;;3.64;76.23
35918;BME280;22011;59.912;30.300;2023-03-21T04:56:15;100445.75;;;3.66;75.71
35918;BME280;22011;59.912;30.300;2023-03-21T04:58:45;100440.81;;;3.72;75.14
35918;BME280;22011;59.912;30.300;2023-03-21T05:01:13;100448.38;;;3.66;75.28
35918;BME280;22011;59.912;30.300;2023-03-21T05:03:45;100442.41;;;3.64;75.41
35918;BME280;22011;59.912;30.300;2023-03-21T05:06:12;100450.56;;;3.60;75.09
35918;BME280;22011;59.912;30.300;2023-03-21T05:08:42;100451.28;;;3.63;75.58
35918;BME280;22011;59.912;30.300;2023-03-21T05:11:11;100451.59;;;3.69;74.61
35918;BME280;22011;59.912;30.300;2023-03-21T05:13:39;100454.38;;;3.68;74.53
35918;BME280;22011;59.912;30.300;2023-03-21T05:16:09;100455.19;;;3.68;75.71
35918;BME280;22011;59.912;30.300;2023-03-21T05:18:36;100459.06;;;3.64;75.84
35918;BME280;22011;59.912;30.300;2023-03-21T05:21:11;100463.47;;;3.64;76.56
35918;BME280;22011;59.912;30.300;2023-03-21T05:23:40;100458.22;;;3.64;75.29
35918;BME280;22011;59.912;30.300;2023-03-21T05:26:08;100458.22;;;3.64;74.64
35918;BME280;22011;59.912;30.300;2023-03-21T05:28:47;100457.97;;;3.67;75.71
35918;BME280;22011;59.912;30.300;2023-03-21T05:31:17;100456.47;;;3.74;74.66
35918;BME280;22011;59.912;30.300;2023-03-21T05:33:48;100463.03;;;3.79;74.56
35918;BME280;22011;59.912;30.300;2023-03-21T05:36:18;100461.25;;;3.80;75.03
35918;BME280;22011;59.912;30.300;2023-03-21T05:38:45;100473.44;;;3.81;75.56
35918;BME280;22011;59.912;30.300;2023-03-21T05:41:15;100477.75;;;3.82;75.60
35918;BME280;22011;59.912;30.300;2023-03-21T05:43:43;100482.91;;;3.83;75.16
35918;BME280;22011;59.912;30.300;2023-03-21T05:46:11;100489.19;;;3.92;76.03
35918;BME280;22011;59.912;30.300;2023-03-21T05:48:40;100492.16;;;3.99;75.88
35918;BME280;22011;59.912;30.300;2023-03-21T05:51:17;100497.03;;;4.03;75.70
35918;BME280;22011;59.912;30.300;2023-03-21T05:53:46;100501.47;;;4.03;75.15
35918;BME280;22011;59.912;30.300;2023-03-21T05:56:15;100498.00;;;4.02;74.59
35918;BME280;22011;59.912;30.300;2023-03-21T05:58:52;100499.22;;;3.98;74.49
35918;BME280;22011;59.912;30.300;2023-03-21T06:01:21;100504.25;;;4.01;74.59
35918;BME280;22011;59.912;30.300;2023-03-21T06:03:58;100503.97;;;4.04;75.36
35918;BME280;22011;59.912;30.300;2023-03-21T06:06:28;100501.34;;;4.04;74.22
35918;BME280;22011;59.912;30.300;2023-03-21T06:08:58;100495.16;;;4.15;74.08
35918;BME280;22011;59.912;30.300;2023-03-21T06:11:29;100493.78;;;4.20;72.82
35918;BME280;22011;59.912;30.300;2023-03-21T06:14:15;100490.44;;;4.18;72.56
35918;BME280;22011;59.912;30.300;2023-03-21T06:16:45;100489.72;;;4.16;73.58
35918;BME280;22011;59.912;30.300;2023-03-21T06:19:14;100497.38;;;4.19;73.01
35918;BME280;22011;59.912;30.300;2023-03-21T06:22:02;100500.72;;;4.21;73.61
35918;BME280;22011;59.912;30.300;2023-03-21T06:24:31;100503.50;;;4.20;72.32
35918;BME280;22011;59.912;30.300;2023-03-21T06:26:59;100507.16;;;4.28;71.73
35918;BME280;22011;59.912;30.300;2023-03-21T06:29:33;100512.72;;;4.35;70.97
35918;BME280;22011;59.912;30.300;2023-03-21T06:32:01;100514.97;;;4.40;71.81
35918;BME280;22011;59.912;30.300;2023-03-21T06:34:30;100523.06;;;4.48;71.42
35918;BME280;22011;59.912;30.300;2023-03-21T06:36:57;100523.34;;;4.45;70.70
35918;BME280;22011;59.912;30.300;2023-03-21T06:39:30;100531.56;;;4.51;69.95
35918;BME280;22011;59.912;30.300;2023-03-21T06:41:58;100531.69;;;4.50;70.05
35918;BME280;22011;59.912;30.300;2023-03-21T06:44:26;100535.28;;;4.49;70.38
35918;BME280;22011;59.912;30.300;2023-03-21T06:47:01;100538.38;;;4.54;69.91
35918;BME280;22011;59.912;30.300;2023-03-21T06:49:30;100541.59;;;4.57;70.29
35918;BME280;22011;59.912;30.300;2023-03-21T06:52:05;100536.97;;;4.50;69.56
35918;BME280;22011;59.912;30.300;2023-03-21T06:54:33;100544.47;;;4.54;69.59
35918;BME280;22011;59.912;30.300;2023-03-21T06:57:08;100544.22;;;4.57;68.61
35918;BME280;22011;59.912;30.300;2023-03-21T06:59:37;100542.41;;;4.58;69.84
35918;BME280;22011;59.912;30.300;2023-03-21T07:02:14;100549.09;;;4.62;70.22
35918;BME280;22011;59.912;30.300;2023-03-21T07:04:49;100552.19;;;4.67;69.79
35918;BME280;22011;59.912;30.300;2023-03-21T07:07:23;100548.88;;;4.75;68.09
35918;BME280;22011;59.912;30.300;2023-03-21T07:09:51;100548.75;;;4.76;69.26
35918;BME280;22011;59.912;30.300;2023-03-21T07:12:19;100552.94;;;4.79;69.52
35918;BME280;22011;59.912;30.300;2023-03-21T07:15:06;100562.66;;;4.78;69.15
35918;BME280;22011;59.912;30.300;2023-03-21T07:17:34;100542.38;;;4.79;70.35
35918;BME280;22011;59.912;30.300;2023-03-21T07:20:04;100548.66;;;4.87;69.82
35918;BME280;22011;59.912;30.300;2023-03-21T07:22:34;100549.34;;;4.89;69.07
35918;BME280;22011;59.912;30.300;2023-03-21T07:25:01;100539.06;;;4.86;69.01
35918;BME280;22011;59.912;30.300;2023-03-21T07:27:29;100550.31;;;4.88;68.29
35918;BME280;22011;59.912;30.300;2023-03-21T07:29:57;100557.13;;;4.91;68.33
35918;BME280;22011;59.912;30.300;2023-03-21T07:32:25;100571.84;;;4.84;68.84
35918;BME280;22011;59.912;30.300;2023-03-21T07:34:54;100562.38;;;4.81;69.10
35918;BME280;22011;59.912;30.300;2023-03-21T07:37:23;100565.47;;;4.86;69.00
35918;BME280;22011;59.912;30.300;2023-03-21T07:39:52;100564.31;;;4.79;69.37
35918;BME280;22011;59.912;30.300;2023-03-21T07:42:20;100565.41;;;4.77;69.76
35918;BME280;22011;59.912;30.300;2023-03-21T07:44:47;100567.63;;;4.72;69.38
35918;BME280;22011;59.912;30.300;2023-03-21T07:47:15;100575.41;;;4.73;68.79
35918;BME280;22011;59.912;30.300;2023-03-21T07:49:46;100573.59;;;4.74;68.04
35918;BME280;22011;59.912;30.300;2023-03-21T07:52:14;100573.06;;;4.80;68.75
35918;BME280;22011;59.912;30.300;2023-03-21T07:54:43;100577.94;;;4.84;69.75
35918;BME280;22011;59.912;30.300;2023-03-21T07:57:11;100577.69;;;4.87;68.35
35918;BME280;22011;59.912;30.300;2023-03-21T07:59:38;100573.38;;;4.86;68.00
35918;BME280;22011;59.912;30.300;2023-03-21T08:02:06;100578.97;;;4.93;68.50
35918;BME280;22011;59.912;30.300;2023-03-21T08:04:33;100579.97;;;5.02;68.39
35918;BME280;22011;59.912;30.300;2023-03-21T08:07:01;100582.16;;;4.97;67.67
35918;BME280;22011;59.912;30.300;2023-03-21T08:09:28;100585.91;;;4.94;67.61
35918;BME280;22011;59.912;30.300;2023-03-21T08:11:57;100583.31;;;5.04;68.04
35918;BME280;22011;59.912;30.300;2023-03-21T08:14:25;100585.56;;;5.08;66.73
35918;BME280;22011;59.912;30.300;2023-03-21T08:16:52;100588.63;;;5.23;66.60
35918;BME280;22011;59.912;30.300;2023-03-21T08:19:20;100597.38;;;5.23;66.47
35918;BME280;22011;59.912;30.300;2023-03-21T08:21:48;100593.50;;;5.28;66.01
35918;BME280;22011;59.912;30.300;2023-03-21T08:24:16;100598.38;;;5.32;65.99
35918;BME280;22011;59.912;30.300;2023-03-21T08:26:44;100594.06;;;5.31;66.56
35918;BME280;22011;59.912;30.300;2023-03-21T08:29:13;100600.34;;;5.40;64.93
35918;BME280;22011;59.912;30.300;2023-03-21T08:31:41;100605.91;;;5.37;64.53
35918;BME280;22011;59.912;30.300;2023-03-21T08:34:08;100603.13;;;5.38;64.40
35918;BME280;22011;59.912;30.300;2023-03-21T08:36:39;100603.97;;;5.48;64.84
35918;BME280;22011;59.912;30.300;2023-03-21T08:39:06;100605.91;;;5.46;63.80
35918;BME280;22011;59.912;30.300;2023-03-21T08:41:36;100616.91;;;5.51;62.82
35918;BME280;22011;59.912;30.300;2023-03-21T08:44:04;100625.66;;;5.42;64.41
35918;BME280;22011;59.912;30.300;2023-03-21T08:46:33;100624.56;;;5.45;64.96
35918;BME280;22011;59.912;30.300;2023-03-21T08:49:01;100627.31;;;5.43;64.94
35918;BME280;22011;59.912;30.300;2023-03-21T08:51:29;100635.69;;;5.48;63.75
35918;BME280;22011;59.912;30.300;2023-03-21T08:53:56;100631.38;;;5.47;63.68
35918;BME280;22011;59.912;30.300;2023-03-21T08:56:24;100638.47;;;5.47;65.49
35918;BME280;22011;59.912;30.300;2023-03-21T08:58:51;100642.34;;;5.43;65.17
35918;BME280;22011;59.912;30.300;2023-03-21T09:01:19;100640.53;;;5.43;65.49
35918;BME280;22011;59.912;30.300;2023-03-21T09:03:48;100648.19;;;5.46;64.24
35918;BME280;22011;59.912;30.300;2023-03-21T09:06:15;100646.53;;;5.45;63.56
35918;BME280;22011;59.912;30.300;2023-03-21T09:08:43;100640.69;;;5.42;65.22
35918;BME280;22011;59.912;30.300;2023-03-21T09:11:12;100639.28;;;5.47;64.77
35918;BME280;22011;59.912;30.300;2023-03-21T09:13:40;100643.50;;;5.59;64.71
35918;BME280;22011;59.912;30.300;2023-03-21T09:16:07;100643.22;;;5.63;64.26
35918;BME280;22011;59.912;30.300;2023-03-21T09:18:35;100644.63;;;5.67;63.96
35918;BME280;22011;59.912;30.300;2023-03-21T09:21:14;100643.66;;;5.68;62.43
35918;BME280;22011;59.912;30.300;2023-03-21T09:23:42;100648.81;;;5.69;61.60
35918;BME280;22011;59.912;30.300;2023-03-21T09:26:11;100653.81;;;5.72;63.64
35918;BME280;22011;59.912;30.300;2023-03-21T09:28:39;100653.28;;;5.78;61.49
35918;BME280;22011;59.912;30.300;2023-03-21T09:31:08;100659.00;;;5.83;62.17
35918;BME280;22011;59.912;30.300;2023-03-21T09:33:36;100657.31;;;5.82;61.40
35918;BME280;22011;59.912;30.300;2023-03-21T09:36:06;100658.16;;;5.83;60.69
35918;BME280;22011;59.912;30.300;2023-03-21T09:38:38;100675.19;;;5.90;60.88
35918;BME280;22011;59.912;30.300;2023-03-21T09:41:15;100676.72;;;6.02;60.14
35918;BME280;22011;59.912;30.300;2023-03-21T09:43:54;100677.00;;;6.09;59.59
35918;BME280;22011;59.912;30.300;2023-03-21T09:46:31;100685.91;;;6.08;60.72
35918;BME280;22011;59.912;30.300;2023-03-21T09:49:03;100689.53;;;5.97;58.95
35918;BME280;22011;59.912;30.300;2023-03-21T09:51:35;100671.97;;;5.96;60.17
35918;BME280;22011;59.912;30.300;2023-03-21T09:54:11;100687.59;;;6.09;60.95
35918;BME280;22011;59.912;30.300;2023-03-21T09:56:41;100680.63;;;6.08;59.92
35918;BME280;22011;59.912;30.300;2023-03-21T09:59:19;100678.97;;;6.16;59.84
35918;BME280;22011;59.912;30.300;2023-03-21T10:01:48;100682.00;;;6.02;59.07
35918;BME280;22011;59.912;30.300;2023-03-21T10:04:16;100686.88;;;5.97;58.69
35918;BME280;22011;59.912;30.300;2023-03-21T10:06:52;100682.00;;;6.02;59.10
35918;BME280;22011;59.912;30.300;2023-03-21T10:09:24;100683.56;;;6.14;59.73
35918;BME280;22011;59.912;30.300;2023-03-21T10:11:56;100683.97;;;6.19;58.94
35918;BME280;22011;59.912;30.300;2023-03-21T10:14:28;100685.88;;;6.27;58.47
35918;BME280;22011;59.912;30.300;2023-03-21T10:16:58;100681.16;;;6.31;55.51
35918;BME280;22011;59.912;30.300;2023-03-21T10:19:27;100679.22;;;6.33;55.65
35918;BME280;22011;59.912;30.300;2023-03-21T10:21:55;100685.63;;;6.30;56.17
35918;BME280;22011;59.912;30.300;2023-03-21T10:24:26;100695.91;;;6.43;56.58
35918;BME280;22011;59.912;30.300;2023-03-21T10:26:55;100682.97;;;6.40;53.43
35918;BME280;22011;59.912;30.300;2023-03-21T10:29:26;100691.31;;;6.45;55.66
35918;BME280;22011;59.912;30.300;2023-03-21T10:31:54;100698.44;;;6.35;56.48
35918;BME280;22011;59.912;30.300;2023-03-21T10:34:29;100700.50;;;6.41;56.58
35918;BME280;22011;59.912;30.300;2023-03-21T10:36:58;100692.44;;;6.33;57.28
35918;BME280;22011;59.912;30.300;2023-03-21T10:39:32;100692.56;;;6.41;59.28
35918;BME280;22011;59.912;30.300;2023-03-21T10:42:00;100691.31;;;6.26;58.02
35918;BME280;22011;59.912;30.300;2023-03-21T10:44:29;100701.06;;;6.25;60.30
35918;BME280;22011;59.912;30.300;2023-03-21T10:47:02;100690.22;;;6.28;59.42
35918;BME280;22011;59.912;30.300;2023-03-21T10:49:30;100694.81;;;6.36;58.91
35918;BME280;22011;59.912;30.300;2023-03-21T10:52:00;100700.66;;;6.39;58.85
35918;BME280;22011;59.912;30.300;2023-03-21T10:54:34;100704.13;;;6.40;59.17
35918;BME280;22011;59.912;30.300;2023-03-21T10:57:06;100710.97;;;6.33;59.44
35918;BME280;22011;59.912;30.300;2023-03-21T10:59:39;100719.03;;;6.31;59.13
35918;BME280;22011;59.912;30.300;2023-03-21T11:02:16;100718.63;;;6.36;59.67
35918;BME280;22011;59.912;30.300;2023-03-21T11:04:45;100719.06;;;6.12;58.29
35918;BME280;22011;59.912;30.300;2023-03-21T11:07:14;100721.81;;;6.01;59.82
35918;BME280;22011;59.912;30.300;2023-03-21T11:09:47;100723.19;;;5.95;60.47
35918;BME280;22011;59.912;30.300;2023-03-21T11:12:16;100724.25;;;5.83;61.05
35918;BME280;22011;59.912;30.300;2023-03-21T11:14:46;100734.00;;;5.82;60.10
35918;BME280;22011;59.912;30.300;2023-03-21T11:17:23;100737.91;;;5.88;60.95
35918;BME280;22011;59.912;30.300;2023-03-21T11:19:52;100738.25;;;5.64;60.36
35918;BME280;22011;59.912;30.300;2023-03-21T11:22:25;100740.75;;;5.66;60.95
35918;BME280;22011;59.912;30.300;2023-03-21T11:24:59;100744.00;;;5.79;60.30
35918;BME280;22011;59.912;30.300;2023-03-21T11:27:28;100738.97;;;5.76;59.74
35918;BME280;22011;59.912;30.300;2023-03-21T11:29:59;100738.97;;;5.76;60.51
35918;BME280;22011;59.912;30.300;2023-03-21T11:32:29;100736.56;;;6.03;60.66
35918;BME280;22011;59.912;30.300;2023-03-21T11:35:00;100740.75;;;5.66;59.66
35918;BME280;22011;59.912;30.300;2023-03-21T11:37:31;100739.63;;;5.58;60.52
35918;BME280;22011;59.912;30.300;2023-03-21T11:40:18;100737.69;;;5.61;61.66
35918;BME280;22011;59.912;30.300;2023-03-21T11:42:47;100736.09;;;5.48;61.18
35918;BME280;22011;59.912;30.300;2023-03-21T11:45:19;100739.31;;;5.52;61.38
35918;BME280;22011;59.912;30.300;2023-03-21T11:47:49;100734.06;;;5.62;61.74
35918;BME280;22011;59.912;30.300;2023-03-21T11:50:26;100734.38;;;5.68;61.74
35918;BME280;22011;59.912;30.300;2023-03-21T11:53:19;100727.28;;;5.69;62.29
35918;BME280;22011;59.912;30.300;2023-03-21T11:56:01;100729.75;;;5.61;61.73
35918;BME280;22011;59.912;30.300;2023-03-21T11:58:36;100728.16;;;5.48;61.76
35918;BME280;22011;59.912;30.300;2023-03-21T12:01:14;100725.53;;;5.48;62.22
35918;BME280;22011;59.912;30.300;2023-03-21T12:03:54;100738.34;;;5.53;62.52
35918;BME280;22011;59.912;30.300;2023-03-21T12:06:28;100734.72;;;5.54;62.64
35918;BME280;22011;59.912;30.300;2023-03-21T12:09:16;100729.63;;;5.62;62.99
35918;BME280;22011;59.912;30.300;2023-03-21T12:12:02;100731.00;;;5.56;62.50
35918;BME280;22011;59.912;30.300;2023-03-21T12:14:40;100735.66;;;5.43;62.59
35918;BME280;22011;59.912;30.300;2023-03-21T12:17:20;100735.50;;;5.75;64.92
35918;BME280;22011;59.912;30.300;2023-03-21T12:23:02;100733.44;;;5.79;61.15
35918;BME280;22011;59.912;30.300;2023-03-21T12:25:37;100735.88;;;5.61;61.18
35918;BME280;22011;59.912;30.300;2023-03-21T12:28:18;100729.31;;;5.55;61.65
35918;BME280;22011;59.912;30.300;2023-03-21T12:30:55;100736.38;;;5.45;61.58
35918;BME280;22011;59.912;30.300;2023-03-21T12:33:49;100739.88;;;5.55;63.33
35918;BME280;22011;59.912;30.300;2023-03-21T12:36:42;100736.09;;;5.48;62.67
35918;BME280;22011;59.912;30.300;2023-03-21T12:39:26;100737.44;;;5.33;62.23
35918;BME280;22011;59.912;30.300;2023-03-21T12:42:03;100734.88;;;5.22;63.09
35918;BME280;22011;59.912;30.300;2023-03-21T12:44:37;100736.38;;;5.15;62.78
35918;BME280;22011;59.912;30.300;2023-03-21T12:47:09;100734.00;;;5.12;62.30
35918;BME280;22011;59.912;30.300;2023-03-21T12:49:44;100748.19;;;5.11;63.04
35918;BME280;22011;59.912;30.300;2023-03-21T12:52:17;100740.66;;;5.06;63.20
35918;BME280;22011;59.912;30.300;2023-03-21T12:54:49;100740.19;;;5.01;63.14
35918;BME280;22011;59.912;30.300;2023-03-21T12:57:21;100745.03;;;4.96;62.44
35918;BME280;22011;59.912;30.300;2023-03-21T12:59:55;100742.25;;;4.98;62.86
35918;BME280;22011;59.912;30.300;2023-03-21T13:02:30;100742.97;;;5.00;63.25
35918;BME280;22011;59.912;30.300;2023-03-21T13:05:04;100750.13;;;5.09;63.58
35918;BME280;22011;59.912;30.300;2023-03-21T13:07:37;100739.94;;;5.04;63.26
35918;BME280;22011;59.912;30.300;2023-03-21T13:10:13;100746.13;;;5.14;64.03
35918;BME280;22011;59.912;30.300;2023-03-21T13:12:44;100737.09;;;5.17;62.31
35918;BME280;22011;59.912;30.300;2023-03-21T13:18:24;100733.34;;;5.19;62.68
35918;BME280;22011;59.912;30.300;2023-03-21T13:20:56;100736.13;;;5.18;62.52
35918;BME280;22011;59.912;30.300;2023-03-21T13:23:24;100737.09;;;5.17;62.04
35918;BME280;22011;59.912;30.300;2023-03-21T13:25:59;100736.84;;;5.20;62.37
35918;BME280;22011;59.912;30.300;2023-03-21T13:28:28;100739.31;;;5.21;62.07